nws-alerts: Checking more than four warning/county codes can delay the loading of your pages. You should use a cron job to get the data.
EllijayWeather Station Historical Data
Daily Summary for April 20, 2019 Units:  English    Metric   Both
Daily Weekly Monthly Yearly Custom
  High: Low: Average:
Temperature: 45.5 °F 39.7 °F 42.3 °F
Dew Point: 43.5 °F 38.8 °F 41.2 °F
Humidity: 98% 88% 96%
Wind Speed: 6.0mph 0.0mph 0.1mph
Wind Gust: 9.0mph - -
Wind- - SW
Pressure: 30.00 in 29.62 in -
Precipitation: 0.26 in    
Historical Graphs
 
 
Tabular Data for April 20, 2019
Time Temperature Dew Point Pressure Wind Wind Speed Wind Gust Humidity Rainfall Rate (Hourly) solar
00:04 43.0 °F 41.7 °F 29.62 in Calm   1.0 mph 95% 0.00 in meteobridge W/m2
00:09 43.0 °F 41.9 °F 29.62 in Calm     96% 0.00 in meteobridge W/m2
00:14 42.8 °F 41.7 °F 29.62 in Calm   2.0 mph 96% 0.00 in meteobridge W/m2
00:19 43.0 °F 41.9 °F 29.62 in Calm     96% 0.00 in meteobridge W/m2
00:24 42.8 °F 41.7 °F 29.62 in Calm     96% 0.00 in meteobridge W/m2
00:29 42.6 °F 41.4 °F 29.62 in Calm     95% 0.00 in meteobridge W/m2
00:34 42.4 °F 41.4 °F 29.63 in Calm     96% 0.00 in meteobridge W/m2
00:39 42.4 °F 41.2 °F 29.63 in Calm     95% 0.00 in meteobridge W/m2
00:44 42.3 °F 41.2 °F 29.63 in Calm   3.0 mph 96% 0.00 in meteobridge W/m2
00:49 42.3 °F 41.2 °F 29.63 in Calm   1.0 mph 96% 0.00 in meteobridge W/m2
00:54 42.1 °F 41.0 °F 29.63 in Calm     96% 0.00 in meteobridge W/m2
00:59 42.1 °F 41.0 °F 29.64 in Calm   2.0 mph 96% 0.00 in meteobridge W/m2
01:04 41.7 °F 40.6 °F 29.64 in Calm     96% 0.00 in meteobridge W/m2
01:09 41.7 °F 40.6 °F 29.64 in South 2.0 mph 4.0 mph 96% 0.01 in meteobridge W/m2
01:14 41.7 °F 40.6 °F 29.65 in Calm     96% 0.01 in meteobridge W/m2
01:19 41.7 °F 40.6 °F 29.65 in ESE 0.9 mph 2.0 mph 96% 0.01 in meteobridge W/m2
01:24 41.5 °F 40.5 °F 29.65 in Calm   1.0 mph 96% 0.01 in meteobridge W/m2
01:29 41.4 °F 40.3 °F 29.65 in Calm     96% 0.01 in meteobridge W/m2
01:34 41.4 °F 40.3 °F 29.65 in Calm     96% 0.01 in meteobridge W/m2
01:39 41.4 °F 40.3 °F 29.65 in Calm   1.0 mph 96% 0.01 in meteobridge W/m2
01:44 41.4 °F 40.3 °F 29.65 in ENE 0.9 mph 1.0 mph 96% 0.01 in meteobridge W/m2
01:49 41.2 °F 40.1 °F 29.65 in Calm     96% 0.01 in meteobridge W/m2
01:54 41.2 °F 40.1 °F 29.65 in Calm     96% 0.01 in meteobridge W/m2
01:59 41.2 °F 40.1 °F 29.65 in Calm     96% 0.01 in meteobridge W/m2
02:04 41.0 °F 39.9 °F 29.64 in Calm     96% 0.01 in meteobridge W/m2
02:09 40.8 °F 39.7 °F 29.64 in Calm     96% 0.00 in meteobridge W/m2
02:14 40.8 °F 39.7 °F 29.64 in Calm     96% 0.00 in meteobridge W/m2
02:19 40.8 °F 39.7 °F 29.64 in Calm     96% 0.00 in meteobridge W/m2
02:24 40.6 °F 39.6 °F 29.64 in Calm     96% 0.00 in meteobridge W/m2
02:29 40.6 °F 39.6 °F 29.64 in NE 0.9 mph 1.0 mph 96% 0.00 in meteobridge W/m2
02:34 40.6 °F 39.6 °F 29.64 in Calm   1.0 mph 96% 0.00 in meteobridge W/m2
02:39 40.6 °F 39.6 °F 29.64 in Calm   1.0 mph 96% 0.00 in meteobridge W/m2
02:44 40.6 °F 39.4 °F 29.64 in Calm     95% 0.00 in meteobridge W/m2
02:49 40.5 °F 39.4 °F 29.64 in Calm     96% 0.00 in meteobridge W/m2
02:54 40.6 °F 39.6 °F 29.64 in Calm     96% 0.00 in meteobridge W/m2
02:59 40.6 °F 39.6 °F 29.64 in Calm     96% 0.01 in meteobridge W/m2
03:04 40.6 °F 39.6 °F 29.64 in Calm   4.0 mph 96% 0.01 in meteobridge W/m2
03:09 40.6 °F 39.6 °F 29.64 in Calm   2.0 mph 96% 0.01 in meteobridge W/m2
03:14 40.5 °F 39.4 °F 29.64 in SSE 0.9 mph 1.0 mph 96% 0.02 in meteobridge W/m2
03:19 40.5 °F 39.4 °F 29.64 in Calm     96% 0.02 in meteobridge W/m2
03:24 40.5 °F 39.4 °F 29.65 in Calm     96% 0.03 in meteobridge W/m2
03:29 40.5 °F 39.4 °F 29.65 in NNW 0.9 mph 3.0 mph 96% 0.03 in meteobridge W/m2
03:34 40.3 °F 39.2 °F 29.65 in Calm   1.0 mph 96% 0.04 in meteobridge W/m2
03:39 40.5 °F 39.7 °F 29.65 in Calm     97% 0.04 in meteobridge W/m2
03:44 40.3 °F 39.6 °F 29.65 in Calm     97% 0.04 in meteobridge W/m2
03:49 40.5 °F 39.7 °F 29.64 in Calm   1.0 mph 97% 0.04 in meteobridge W/m2
03:54 40.5 °F 39.7 °F 29.64 in Calm     97% 0.04 in meteobridge W/m2
03:59 40.5 °F 39.7 °F 29.64 in Calm     97% 0.03 in meteobridge W/m2
04:04 40.3 °F 39.6 °F 29.64 in Calm     97% 0.04 in meteobridge W/m2
04:09 40.3 °F 39.6 °F 29.64 in Calm     97% 0.04 in meteobridge W/m2
04:14 40.5 °F 39.7 °F 29.64 in Calm   1.0 mph 97% 0.03 in meteobridge W/m2
04:19 40.5 °F 39.7 °F 29.64 in Calm   1.0 mph 97% 0.03 in meteobridge W/m2
04:24 40.5 °F 39.7 °F 29.64 in Calm     97% 0.03 in meteobridge W/m2
04:29 40.3 °F 39.6 °F 29.64 in Calm     97% 0.03 in meteobridge W/m2
04:34 40.3 °F 39.6 °F 29.64 in Calm     97% 0.02 in meteobridge W/m2
04:39 40.5 °F 39.7 °F 29.64 in Calm     97% 0.02 in meteobridge W/m2
04:44 40.5 °F 39.7 °F 29.63 in Calm     97% 0.02 in meteobridge W/m2
04:49 40.3 °F 39.6 °F 29.63 in Calm   1.0 mph 97% 0.03 in meteobridge W/m2
04:54 40.5 °F 39.7 °F 29.63 in Calm   2.0 mph 97% 0.03 in meteobridge W/m2
04:59 40.3 °F 39.6 °F 29.63 in Calm     97% 0.03 in meteobridge W/m2
05:04 40.3 °F 39.6 °F 29.63 in Calm     97% 0.02 in meteobridge W/m2
05:09 40.3 °F 39.6 °F 29.64 in Calm   3.0 mph 97% 0.02 in meteobridge W/m2
05:14 40.3 °F 39.6 °F 29.64 in Calm     97% 0.02 in meteobridge W/m2
05:19 40.3 °F 39.6 °F 29.63 in Calm     97% 0.02 in meteobridge W/m2
05:24 40.1 °F 39.0 °F 29.64 in Calm     96% 0.02 in meteobridge W/m2
05:29 40.1 °F 39.4 °F 29.64 in Calm   3.0 mph 97% 0.02 in meteobridge W/m2
05:34 39.9 °F 38.8 °F 29.64 in Calm     96% 0.02 in meteobridge W/m2
05:39 39.9 °F 39.2 °F 29.64 in Calm     97% 0.02 in meteobridge W/m2
05:44 39.9 °F 38.8 °F 29.63 in Calm   1.0 mph 96% 0.02 in meteobridge W/m2
05:49 39.7 °F 39.0 °F 29.63 in Calm     97% 0.01 in meteobridge W/m2
05:54 39.9 °F 39.2 °F 29.63 in Calm   4.0 mph 97% 0.01 in meteobridge W/m2
05:59 39.9 °F 39.2 °F 29.63 in Calm   4.0 mph 97% 0.01 in meteobridge W/m2
06:04 39.7 °F 39.0 °F 29.63 in Calm     97% 0.01 in meteobridge W/m2
06:09 39.9 °F 39.2 °F 29.64 in Calm     97% 0.01 in meteobridge W/m2
06:14 39.9 °F 39.2 °F 29.64 in NNW 0.9 mph 3.0 mph 97% 0.01 in meteobridge W/m2
06:19 39.9 °F 39.2 °F 29.63 in Calm     97% 0.02 in meteobridge W/m2
06:24 39.9 °F 39.2 °F 29.64 in Calm   2.0 mph 97% 0.01 in meteobridge W/m2
06:29 39.9 °F 39.2 °F 29.64 in Calm     97% 0.01 in meteobridge W/m2
06:34 39.9 °F 39.2 °F 29.64 in Calm     97% 0.02 in meteobridge W/m2
06:39 39.9 °F 39.2 °F 29.65 in Calm     97% 0.02 in meteobridge W/m2
06:44 39.9 °F 39.2 °F 29.65 in Calm     97% 0.02 in meteobridge W/m2
06:49 39.9 °F 39.2 °F 29.65 in Calm     97% 0.03 in meteobridge W/m2
06:54 39.9 °F 39.2 °F 29.65 in Calm   2.0 mph 97% 0.03 in meteobridge W/m2
06:59 39.9 °F 39.2 °F 29.65 in Calm   2.0 mph 97% 0.03 in meteobridge W/m2
07:04 39.7 °F 39.0 °F 29.65 in Calm     97% 0.03 in meteobridge W/m2
07:09 39.7 °F 39.0 °F 29.65 in Calm     97% 0.03 in meteobridge W/m2
07:14 39.7 °F 39.0 °F 29.65 in Calm     97% 0.03 in meteobridge W/m2
07:19 39.7 °F 39.0 °F 29.66 in Calm     97% 0.02 in meteobridge W/m2
07:24 39.7 °F 39.0 °F 29.66 in Calm     97% 0.02 in meteobridge W/m2
07:29 39.7 °F 39.0 °F 29.66 in Calm     97% 0.02 in meteobridge W/m2
07:34 39.9 °F 39.2 °F 29.67 in Calm   2.0 mph 97% 0.01 in meteobridge W/m2
07:39 39.9 °F 39.2 °F 29.67 in Calm     97% 0.01 in meteobridge W/m2
07:44 39.9 °F 39.2 °F 29.67 in Calm   2.0 mph 97% 0.02 in meteobridge W/m2
07:49 40.1 °F 39.6 °F 29.67 in Calm     98% 0.01 in meteobridge W/m2
07:54 40.1 °F 39.4 °F 29.67 in Calm     97% 0.01 in meteobridge W/m2
07:59 40.1 °F 39.6 °F 29.67 in Calm     98% 0.01 in meteobridge W/m2
08:04 39.9 °F 39.2 °F 29.67 in Calm     97% 0.02 in meteobridge W/m2
08:09 39.9 °F 39.2 °F 29.67 in Calm   5.0 mph 97% 0.02 in meteobridge W/m2
08:14 39.9 °F 39.2 °F 29.67 in Calm     97% 0.03 in meteobridge W/m2
08:19 40.1 °F 39.4 °F 29.68 in Calm     97% 0.03 in meteobridge W/m2
08:24 40.3 °F 39.6 °F 29.68 in Calm   3.0 mph 97% 0.03 in meteobridge W/m2
08:29 40.1 °F 39.4 °F 29.68 in Calm     97% 0.03 in meteobridge W/m2
08:34 39.9 °F 39.2 °F 29.69 in Calm   2.0 mph 97% 0.03 in meteobridge W/m2
08:39 39.9 °F 39.2 °F 29.69 in Calm     97% 0.03 in meteobridge W/m2
08:44 40.1 °F 39.4 °F 29.69 in Calm     97% 0.02 in meteobridge W/m2
08:49 40.1 °F 39.4 °F 29.69 in Calm     97% 0.02 in meteobridge W/m2
08:54 40.3 °F 39.6 °F 29.69 in Calm     97% 0.02 in meteobridge W/m2
08:59 40.3 °F 39.6 °F 29.70 in Calm   1.0 mph 97% 0.02 in meteobridge W/m2
09:04 40.5 °F 39.7 °F 29.70 in Calm   4.0 mph 97% 0.02 in meteobridge W/m2
09:09 40.5 °F 39.7 °F 29.70 in Calm     97% 0.02 in meteobridge W/m2
09:14 40.6 °F 40.1 °F 29.70 in Calm     98% 0.01 in meteobridge W/m2
09:19 40.8 °F 40.3 °F 29.70 in Calm     98% 0.01 in meteobridge W/m2
09:24 41.2 °F 40.6 °F 29.70 in Calm     98% 0.01 in meteobridge W/m2
09:28 41.2 °F 40.5 °F 29.70 in Calm     97% 0.01 in meteobridge W/m2
09:34 41.2 °F 40.5 °F 29.71 in Calm     97% 0.01 in meteobridge W/m2
09:39 41.2 °F 40.1 °F 29.71 in Calm   2.0 mph 96% 0.01 in meteobridge W/m2
09:44 41.2 °F 40.5 °F 29.71 in Calm     97% 0.01 in meteobridge W/m2
09:49 41.4 °F 40.6 °F 29.71 in Calm     97% 0.01 in meteobridge W/m2
09:54 41.4 °F 40.6 °F 29.72 in Calm     97% 0.01 in meteobridge W/m2
09:59 41.4 °F 40.6 °F 29.72 in Calm     97% 0.00 in meteobridge W/m2
10:04 41.4 °F 40.6 °F 29.72 in Calm     97% 0.00 in meteobridge W/m2
10:09 41.2 °F 40.5 °F 29.72 in Calm     97% 0.00 in meteobridge W/m2
10:14 41.4 °F 40.6 °F 29.72 in Calm     97% 0.00 in meteobridge W/m2
10:19 41.4 °F 40.3 °F 29.73 in Calm     96% 0.00 in meteobridge W/m2
10:24 41.2 °F 40.1 °F 29.73 in Calm   3.0 mph 96% 0.01 in meteobridge W/m2
10:29 41.4 °F 40.6 °F 29.73 in Calm     97% 0.01 in meteobridge W/m2
10:34 41.5 °F 40.8 °F 29.74 in Calm   2.0 mph 97% 0.01 in meteobridge W/m2
10:39 41.9 °F 40.8 °F 29.74 in Calm     96% 0.01 in meteobridge W/m2
10:44 42.3 °F 41.5 °F 29.74 in Calm     97% 0.01 in meteobridge W/m2
10:49 42.3 °F 41.5 °F 29.74 in Calm     97% 0.01 in meteobridge W/m2
10:54 42.6 °F 41.9 °F 29.74 in Calm   3.0 mph 97% 0.01 in meteobridge W/m2
10:59 42.6 °F 41.5 °F 29.74 in Calm   2.0 mph 96% 0.01 in meteobridge W/m2
11:04 42.8 °F 41.5 °F 29.74 in Calm   5.0 mph 95% 0.01 in meteobridge W/m2
11:09 42.4 °F 41.2 °F 29.75 in Calm   3.0 mph 95% 0.01 in meteobridge W/m2
11:14 42.4 °F 40.6 °F 29.75 in Calm   5.0 mph 93% 0.01 in meteobridge W/m2
11:19 42.4 °F 41.2 °F 29.76 in Calm     95% 0.01 in meteobridge W/m2
11:24 42.4 °F 40.8 °F 29.76 in Calm   2.0 mph 94% 0.00 in meteobridge W/m2
11:29 42.4 °F 40.8 °F 29.76 in Calm     94% 0.00 in meteobridge W/m2
11:34 42.6 °F 41.4 °F 29.76 in Calm     95% 0.00 in meteobridge W/m2
11:39 42.6 °F 41.4 °F 29.77 in Calm     95% 0.00 in meteobridge W/m2
11:44 42.8 °F 41.5 °F 29.77 in Calm   1.0 mph 95% 0.00 in meteobridge W/m2
11:49 43.0 °F 41.9 °F 29.77 in Calm   1.0 mph 96% 0.00 in meteobridge W/m2
11:54 43.2 °F 41.5 °F 29.77 in Calm     94% 0.00 in meteobridge W/m2
11:59 43.0 °F 41.4 °F 29.77 in Calm     94% 0.00 in meteobridge W/m2
12:04 43.0 °F 41.4 °F 29.77 in Calm     94% 0.00 in meteobridge W/m2
12:09 43.0 °F 41.2 °F 29.78 in Calm   3.0 mph 93% 0.00 in meteobridge W/m2
12:14 42.6 °F 40.8 °F 29.78 in Calm     93% 0.00 in meteobridge W/m2
12:19 42.4 °F 40.8 °F 29.78 in Calm     94% 0.00 in meteobridge W/m2
12:24 42.4 °F 40.6 °F 29.78 in Calm   5.0 mph 93% 0.00 in meteobridge W/m2
12:29 42.4 °F 40.8 °F 29.78 in NW 2.9 mph 3.0 mph 94% 0.00 in meteobridge W/m2
12:34 42.4 °F 40.8 °F 29.78 in Calm     94% 0.00 in meteobridge W/m2
12:39 42.6 °F 41.0 °F 29.78 in Calm   4.0 mph 94% 0.00 in meteobridge W/m2
12:44 42.8 °F 41.2 °F 29.79 in NW 0.9 mph 2.0 mph 94% 0.00 in meteobridge W/m2
12:49 43.2 °F 41.5 °F 29.79 in Calm     94% 0.00 in meteobridge W/m2
12:54 43.2 °F 41.5 °F 29.79 in Calm   1.0 mph 94% 0.00 in meteobridge W/m2
12:59 43.2 °F 41.4 °F 29.79 in Calm     93% 0.00 in meteobridge W/m2
13:04 43.2 °F 41.0 °F 29.79 in Calm   5.0 mph 92% 0.00 in meteobridge W/m2
13:09 43.2 °F 40.6 °F 29.79 in Calm   1.0 mph 91% 0.00 in meteobridge W/m2
13:14 43.2 °F 41.4 °F 29.79 in Calm   2.0 mph 93% 0.00 in meteobridge W/m2
13:19 43.2 °F 41.4 °F 29.80 in Calm     93% 0.00 in meteobridge W/m2
13:24 43.2 °F 41.0 °F 29.80 in Calm   1.0 mph 92% 0.00 in meteobridge W/m2
13:29 43.2 °F 41.4 °F 29.80 in Calm     93% 0.00 in meteobridge W/m2
13:34 43.2 °F 41.0 °F 29.80 in Calm   3.0 mph 92% 0.00 in meteobridge W/m2
13:39 43.3 °F 41.2 °F 29.80 in Calm   1.0 mph 92% 0.00 in meteobridge W/m2
13:44 43.3 °F 41.5 °F 29.80 in Calm   1.0 mph 93% 0.00 in meteobridge W/m2
13:49 43.3 °F 41.2 °F 29.80 in Calm     92% 0.00 in meteobridge W/m2
13:54 43.3 °F 41.5 °F 29.81 in Calm   3.0 mph 93% 0.00 in meteobridge W/m2
13:59 43.3 °F 41.5 °F 29.81 in Calm     93% 0.00 in meteobridge W/m2
14:04 43.5 °F 41.7 °F 29.81 in Calm     93% 0.00 in meteobridge W/m2
14:09 43.5 °F 41.4 °F 29.81 in Calm   2.0 mph 92% 0.00 in meteobridge W/m2
14:14 43.9 °F 41.4 °F 29.81 in Calm   2.0 mph 91% 0.00 in meteobridge W/m2
14:19 43.9 °F 41.4 °F 29.81 in WNW 6.0 mph 6.0 mph 91% 0.00 in meteobridge W/m2
14:24 44.1 °F 41.5 °F 29.81 in Calm     91% 0.00 in meteobridge W/m2
14:29 44.2 °F 41.5 °F 29.81 in Calm     90% 0.00 in meteobridge W/m2
14:34 44.4 °F 42.3 °F 29.82 in Calm     92% 0.00 in meteobridge W/m2
14:39 44.6 °F 41.2 °F 29.82 in Calm     88% 0.00 in meteobridge W/m2
14:44 44.8 °F 41.7 °F 29.82 in Calm     89% 0.00 in meteobridge W/m2
14:49 45.0 °F 42.4 °F 29.82 in Calm     91% 0.00 in meteobridge W/m2
14:54 45.0 °F 41.9 °F 29.82 in Calm   2.0 mph 89% 0.00 in meteobridge W/m2
14:59 45.1 °F 42.1 °F 29.82 in Calm     89% 0.00 in meteobridge W/m2
15:04 45.1 °F 42.1 °F 29.82 in NW 0.9 mph 4.0 mph 89% 0.00 in meteobridge W/m2
15:09 45.3 °F 42.6 °F 29.82 in Calm     90% 0.00 in meteobridge W/m2
15:14 45.3 °F 41.9 °F 29.82 in Calm   3.0 mph 88% 0.00 in meteobridge W/m2
15:19 45.3 °F 42.3 °F 29.83 in Calm   2.0 mph 89% 0.00 in meteobridge W/m2
15:24 45.3 °F 42.8 °F 29.83 in Calm     91% 0.00 in meteobridge W/m2
15:29 45.3 °F 42.6 °F 29.83 in Calm     90% 0.00 in meteobridge W/m2
15:34 45.1 °F 43.0 °F 29.83 in Calm     92% 0.00 in meteobridge W/m2
15:39 45.1 °F 42.6 °F 29.83 in Calm     91% 0.00 in meteobridge W/m2
15:44 45.1 °F 43.0 °F 29.84 in Calm     92% 0.00 in meteobridge W/m2
15:49 45.3 °F 42.8 °F 29.84 in Calm     91% 0.00 in meteobridge W/m2
15:54 45.3 °F 42.8 °F 29.84 in Calm     91% 0.00 in meteobridge W/m2
15:59 45.5 °F 43.5 °F 29.84 in Calm     93% 0.00 in meteobridge W/m2
16:04 45.3 °F 43.2 °F 29.84 in Calm     92% 0.00 in meteobridge W/m2
16:09 45.3 °F 42.8 °F 29.84 in Calm     91% 0.01 in meteobridge W/m2
16:14 45.1 °F 43.2 °F 29.84 in Calm     93% 0.01 in meteobridge W/m2
16:19 45.1 °F 43.0 °F 29.84 in Calm   3.0 mph 92% 0.01 in meteobridge W/m2
16:24 45.1 °F 43.2 °F 29.85 in Calm     93% 0.01 in meteobridge W/m2
16:29 45.0 °F 43.0 °F 29.85 in Calm     93% 0.02 in meteobridge W/m2
16:34 44.8 °F 43.2 °F 29.85 in Calm     94% 0.02 in meteobridge W/m2
16:39 44.4 °F 43.2 °F 29.85 in Calm   3.0 mph 95% 0.03 in meteobridge W/m2
16:44 44.2 °F 42.6 °F 29.85 in Calm   2.0 mph 94% 0.04 in meteobridge W/m2
16:49 44.2 °F 43.0 °F 29.85 in Calm   1.0 mph 95% 0.04 in meteobridge W/m2
16:54 44.2 °F 43.0 °F 29.86 in Calm   1.0 mph 95% 0.04 in meteobridge W/m2
16:59 44.2 °F 43.2 °F 29.86 in Calm   2.0 mph 96% 0.04 in meteobridge W/m2
17:04 44.2 °F 43.2 °F 29.86 in Calm   1.0 mph 96% 0.05 in meteobridge W/m2
17:09 44.2 °F 43.2 °F 29.86 in Calm     96% 0.05 in meteobridge W/m2
17:14 44.2 °F 43.0 °F 29.87 in Calm   9.0 mph 95% 0.05 in meteobridge W/m2
17:19 44.2 °F 43.2 °F 29.87 in Calm   1.0 mph 96% 0.05 in meteobridge W/m2
17:24 44.4 °F 43.3 °F 29.87 in NNW 0.9 mph 1.0 mph 96% 0.05 in meteobridge W/m2
17:29 44.4 °F 43.3 °F 29.88 in Calm     96% 0.04 in meteobridge W/m2
17:34 44.4 °F 43.2 °F 29.88 in Calm   4.0 mph 95% 0.04 in meteobridge W/m2
17:39 44.4 °F 43.2 °F 29.88 in Calm     95% 0.04 in meteobridge W/m2
17:44 44.2 °F 43.0 °F 29.88 in Calm     95% 0.03 in meteobridge W/m2
17:49 44.2 °F 43.0 °F 29.89 in WNW 0.9 mph 2.0 mph 95% 0.03 in meteobridge W/m2
17:54 44.2 °F 43.2 °F 29.89 in Calm     96% 0.04 in meteobridge W/m2
17:59 44.2 °F 43.2 °F 29.89 in Calm   4.0 mph 96% 0.04 in meteobridge W/m2
18:04 44.1 °F 43.0 °F 29.89 in Calm   1.0 mph 96% 0.03 in meteobridge W/m2
18:09 44.1 °F 43.0 °F 29.90 in Calm   4.0 mph 96% 0.02 in meteobridge W/m2
18:14 44.1 °F 43.0 °F 29.90 in North 0.9 mph 2.0 mph 96% 0.02 in meteobridge W/m2
18:19 43.9 °F 42.6 °F 29.90 in Calm     95% 0.02 in meteobridge W/m2
18:24 43.9 °F 42.8 °F 29.91 in Calm     96% 0.02 in meteobridge W/m2
18:29 43.9 °F 42.8 °F 29.91 in Calm     96% 0.02 in meteobridge W/m2
18:34 43.9 °F 42.8 °F 29.91 in Calm   1.0 mph 96% 0.01 in meteobridge W/m2
18:39 43.9 °F 42.8 °F 29.91 in Calm   1.0 mph 96% 0.01 in meteobridge W/m2
18:44 43.9 °F 42.8 °F 29.92 in Calm   1.0 mph 96% 0.01 in meteobridge W/m2
18:49 43.9 °F 43.2 °F 29.92 in Calm   1.0 mph 97% 0.01 in meteobridge W/m2
18:54 43.9 °F 43.2 °F 29.92 in Calm   2.0 mph 97% 0.00 in meteobridge W/m2
18:59 43.9 °F 43.2 °F 29.92 in Calm     97% 0.00 in meteobridge W/m2
19:03 43.9 °F 43.2 °F 29.92 in Calm     97% 0.00 in meteobridge W/m2
19:09 43.9 °F 43.2 °F 29.92 in Calm   3.0 mph 97% 0.00 in meteobridge W/m2
19:14 43.9 °F 43.2 °F 29.93 in WNW 4.9 mph 6.0 mph 97% 0.00 in meteobridge W/m2
19:18 43.9 °F 42.8 °F 29.93 in Calm     96% 0.00 in meteobridge W/m2
19:24 43.7 °F 43.0 °F 29.93 in Calm     97% 0.00 in meteobridge W/m2
19:29 43.7 °F 43.0 °F 29.93 in Calm     97% 0.00 in meteobridge W/m2
19:34 43.5 °F 42.8 °F 29.93 in Calm     97% 0.01 in meteobridge W/m2
19:39 43.5 °F 42.8 °F 29.94 in Calm   3.0 mph 97% 0.01 in meteobridge W/m2
19:44 43.5 °F 42.8 °F 29.94 in Calm     97% 0.01 in meteobridge W/m2
19:49 43.5 °F 42.8 °F 29.94 in Calm     97% 0.01 in meteobridge W/m2
19:54 43.5 °F 42.8 °F 29.94 in Calm     97% 0.01 in meteobridge W/m2
19:59 43.3 °F 42.6 °F 29.94 in Calm     97% 0.01 in meteobridge W/m2
20:04 43.3 °F 42.6 °F 29.95 in Calm   1.0 mph 97% 0.01 in meteobridge W/m2
20:09 43.3 °F 42.6 °F 29.95 in Calm     97% 0.01 in meteobridge W/m2
20:14 43.3 °F 42.6 °F 29.95 in Calm     97% 0.01 in meteobridge W/m2
20:19 43.3 °F 42.6 °F 29.95 in West 2.0 mph 2.0 mph 97% 0.01 in meteobridge W/m2
20:24 43.3 °F 42.6 °F 29.95 in Calm     97% 0.01 in meteobridge W/m2
20:29 43.3 °F 42.6 °F 29.95 in Calm   3.0 mph 97% 0.01 in meteobridge W/m2
20:34 43.3 °F 42.6 °F 29.96 in Calm     97% 0.00 in meteobridge W/m2
20:39 43.3 °F 42.6 °F 29.96 in Calm   3.0 mph 97% 0.00 in meteobridge W/m2
20:44 43.3 °F 42.6 °F 29.96 in Calm     97% 0.00 in meteobridge W/m2
20:49 43.3 °F 42.6 °F 29.96 in Calm     97% 0.00 in meteobridge W/m2
20:54 43.3 °F 42.6 °F 29.96 in Calm     97% 0.00 in meteobridge W/m2
20:59 43.3 °F 42.6 °F 29.97 in Calm     97% 0.00 in meteobridge W/m2
21:04 43.3 °F 42.6 °F 29.97 in Calm     97% 0.00 in meteobridge W/m2
21:09 43.3 °F 42.6 °F 29.97 in Calm     97% 0.00 in meteobridge W/m2
21:14 43.3 °F 42.6 °F 29.97 in Calm     97% 0.00 in meteobridge W/m2
21:19 43.3 °F 42.6 °F 29.97 in Calm     97% 0.00 in meteobridge W/m2
21:24 43.5 °F 42.8 °F 29.98 in Calm   2.0 mph 97% 0.00 in meteobridge W/m2
21:29 43.3 °F 42.8 °F 29.98 in Calm     98% 0.00 in meteobridge W/m2
21:34 43.5 °F 42.8 °F 29.98 in Calm     97% 0.00 in meteobridge W/m2
21:39 43.3 °F 42.8 °F 29.98 in Calm     98% 0.00 in meteobridge W/m2
21:44 43.3 °F 42.6 °F 29.98 in Calm     97% 0.00 in meteobridge W/m2
21:49 43.3 °F 42.8 °F 29.98 in Calm     98% 0.00 in meteobridge W/m2
21:54 43.3 °F 42.8 °F 29.98 in Calm     98% 0.00 in meteobridge W/m2
21:59 43.3 °F 42.8 °F 29.98 in Calm     98% 0.00 in meteobridge W/m2
22:04 43.3 °F 42.8 °F 29.98 in Calm     98% 0.00 in meteobridge W/m2
22:09 43.3 °F 42.8 °F 29.98 in Calm     98% 0.00 in meteobridge W/m2
22:14 43.3 °F 42.8 °F 29.98 in Calm     98% 0.00 in meteobridge W/m2
22:19 43.3 °F 42.8 °F 29.99 in Calm     98% 0.00 in meteobridge W/m2
22:24 43.3 °F 42.8 °F 29.99 in Calm     98% 0.00 in meteobridge W/m2
22:29 43.3 °F 42.8 °F 29.99 in Calm     98% 0.00 in meteobridge W/m2
22:34 43.3 °F 42.8 °F 29.99 in Calm     98% 0.00 in meteobridge W/m2
22:39 43.3 °F 42.8 °F 29.99 in Calm     98% 0.00 in meteobridge W/m2
22:44 43.3 °F 42.8 °F 29.99 in Calm     98% 0.00 in meteobridge W/m2
22:49 43.3 °F 42.8 °F 29.99 in Calm     98% 0.00 in meteobridge W/m2
22:54 43.3 °F 42.8 °F 30.00 in Calm     98% 0.00 in meteobridge W/m2
22:59 43.3 °F 42.8 °F 30.00 in Calm     98% 0.00 in meteobridge W/m2
23:04 43.3 °F 42.8 °F 30.00 in Calm     98% 0.00 in meteobridge W/m2
23:09 43.3 °F 42.8 °F 30.00 in Calm     98% 0.00 in meteobridge W/m2
23:14 43.3 °F 42.8 °F 30.00 in Calm     98% 0.00 in meteobridge W/m2
23:19 43.3 °F 42.8 °F 30.00 in Calm     98% 0.00 in meteobridge W/m2
23:24 43.3 °F 42.8 °F 30.00 in Calm     98% 0.00 in meteobridge W/m2
23:29 43.5 °F 43.0 °F 30.00 in Calm     98% 0.00 in meteobridge W/m2
23:34 43.3 °F 42.8 °F 30.00 in Calm     98% 0.00 in meteobridge W/m2
23:39 43.5 °F 43.0 °F 30.00 in Calm     98% 0.00 in meteobridge W/m2
23:44 43.3 °F 42.8 °F 30.00 in Calm     98% 0.00 in meteobridge W/m2
23:49 43.3 °F 42.8 °F 30.00 in Calm     98% 0.00 in meteobridge W/m2
23:54 43.3 °F 42.8 °F 30.00 in Calm     98% 0.00 in meteobridge W/m2
23:59 43.3 °F 42.8 °F 30.00 in Calm     98% 0.00 in meteobridge W/m2
EllijayWeather
Compliments of Weather Underground - 2.5 mb